createdAt,value
2023-02-23T00:01:27.880Z,4.99
2023-02-23T00:03:57.135Z,5.00
2023-02-23T00:06:25.820Z,4.93
2023-02-23T00:08:53.019Z,4.90
2023-02-23T00:11:21.056Z,5.03
2023-02-23T00:13:52.600Z,4.93
2023-02-23T00:16:23.821Z,4.89
2023-02-23T00:18:56.932Z,4.87
2023-02-23T00:21:46.808Z,4.89
2023-02-23T00:24:19.788Z,4.77
2023-02-23T00:26:48.358Z,4.68
2023-02-23T00:29:18.823Z,4.79
2023-02-23T00:31:48.295Z,4.81
2023-02-23T00:34:21.015Z,4.86
2023-02-23T00:36:51.695Z,4.88
2023-02-23T00:39:21.785Z,4.73
2023-02-23T00:41:49.835Z,4.65
2023-02-23T00:44:17.285Z,4.62
2023-02-23T00:46:45.796Z,4.63
2023-02-23T00:49:13.638Z,4.52
2023-02-23T00:51:41.720Z,4.44
2023-02-23T00:54:11.674Z,4.38
2023-02-23T00:56:39.709Z,4.35
2023-02-23T00:59:07.054Z,4.33
2023-02-23T01:01:34.073Z,4.33
2023-02-23T01:04:01.644Z,4.18
2023-02-23T01:06:28.453Z,4.26
2023-02-23T01:08:58.065Z,4.22
2023-02-23T01:11:28.044Z,4.16
2023-02-23T01:13:58.080Z,4.13
2023-02-23T01:16:28.812Z,3.98
2023-02-23T01:18:58.475Z,4.04
2023-02-23T01:21:29.149Z,3.99
2023-02-23T01:23:56.495Z,4.06
2023-02-23T01:26:31.612Z,4.03
2023-02-23T01:29:01.775Z,4.07
2023-02-23T01:31:29.976Z,4.11
2023-02-23T01:33:59.849Z,3.99
2023-02-23T01:36:29.226Z,4.00
2023-02-23T01:38:57.466Z,3.96
2023-02-23T01:41:27.926Z,3.90
2023-02-23T01:44:00.308Z,3.81
2023-02-23T01:46:27.295Z,3.80
2023-02-23T01:48:56.505Z,3.69
2023-02-23T01:51:28.055Z,3.75
2023-02-23T01:54:08.043Z,3.80
2023-02-23T01:56:43.502Z,3.75
2023-02-23T01:59:15.330Z,3.69
2023-02-23T02:01:43.629Z,3.59
2023-02-23T02:04:16.918Z,3.61
2023-02-23T02:06:48.282Z,3.48
2023-02-23T02:09:18.068Z,3.41
2023-02-23T02:11:46.639Z,3.38
2023-02-23T02:14:20.582Z,3.37
2023-02-23T02:17:16.105Z,3.47
2023-02-23T02:20:06.523Z,3.46
2023-02-23T02:22:54.225Z,3.40
2023-02-23T02:25:50.354Z,3.36
2023-02-23T02:28:46.086Z,3.41
2023-02-23T02:31:45.325Z,3.38
2023-02-23T02:34:26.049Z,3.36
2023-02-23T02:37:20.994Z,3.25
2023-02-23T02:40:17.978Z,3.29
2023-02-23T02:42:59.986Z,3.34
2023-02-23T02:45:39.032Z,3.36
2023-02-23T02:48:25.896Z,3.34
2023-02-23T02:50:58.496Z,3.37
2023-02-23T02:53:41.717Z,3.27
2023-02-23T02:56:11.004Z,3.16
2023-02-23T02:58:39.134Z,3.17
2023-02-23T03:01:32.074Z,3.16
2023-02-23T03:04:21.135Z,3.17
2023-02-23T03:07:16.466Z,2.96
2023-02-23T03:10:33.272Z,3.09
2023-02-23T03:13:24.589Z,3.07
2023-02-23T03:16:28.214Z,3.05
2023-02-23T03:19:26.106Z,2.94
2023-02-23T03:22:24.197Z,2.80
2023-02-23T03:25:25.026Z,2.88
2023-02-23T03:28:10.576Z,2.80
2023-02-23T03:31:02.932Z,2.48
2023-02-23T03:34:20.633Z,2.83
2023-02-23T03:37:14.218Z,2.70
2023-02-23T03:40:09.803Z,2.70
2023-02-23T03:42:56.859Z,2.72
2023-02-23T03:45:45.038Z,2.63
2023-02-23T03:48:35.278Z,2.71
2023-02-23T03:51:27.886Z,2.50
2023-02-23T03:54:28.945Z,2.52
2023-02-23T03:57:17.928Z,2.46
2023-02-23T04:00:10.236Z,2.53
2023-02-23T04:03:06.606Z,2.47
2023-02-23T04:05:56.397Z,2.49
2023-02-23T04:08:47.173Z,2.34
2023-02-23T04:11:41.543Z,2.44
2023-02-23T04:14:17.199Z,2.28
2023-02-23T04:16:45.314Z,2.44
2023-02-23T04:19:12.728Z,2.33
2023-02-23T04:21:39.657Z,2.30
2023-02-23T04:24:06.754Z,2.26
2023-02-23T04:26:33.764Z,2.26
2023-02-23T04:29:00.649Z,2.19
2023-02-23T04:31:27.794Z,2.26
2023-02-23T04:33:54.730Z,2.21
2023-02-23T04:36:21.562Z,2.21
2023-02-23T04:38:48.448Z,2.21
2023-02-23T04:41:15.520Z,2.23
2023-02-23T04:43:42.441Z,2.24
2023-02-23T04:46:09.853Z,2.18
2023-02-23T04:48:37.038Z,2.18
2023-02-23T04:51:04.523Z,2.20
2023-02-23T04:53:31.244Z,2.14
2023-02-23T04:55:58.572Z,2.26
2023-02-23T04:58:25.341Z,2.30
2023-02-23T05:00:53.223Z,2.21
2023-02-23T05:03:20.013Z,2.16
2023-02-23T05:05:47.112Z,2.33
2023-02-23T05:08:13.996Z,2.29
2023-02-23T05:10:40.935Z,2.35
2023-02-23T05:13:07.755Z,2.41
2023-02-23T05:15:34.786Z,2.39
2023-02-23T05:18:01.555Z,2.42
2023-02-23T05:20:29.308Z,2.37
2023-02-23T05:22:56.182Z,2.43
2023-02-23T05:25:23.304Z,2.37
2023-02-23T05:27:50.132Z,2.47
2023-02-23T05:30:17.594Z,2.64
2023-02-23T05:32:44.895Z,2.74
2023-02-23T05:35:12.462Z,2.70
2023-02-23T05:37:39.438Z,2.71
2023-02-23T05:40:07.489Z,2.77
2023-02-23T05:42:34.235Z,2.73
2023-02-23T05:45:01.189Z,2.69
2023-02-23T05:47:28.079Z,2.87
2023-02-23T05:49:54.879Z,2.94
2023-02-23T05:52:25.063Z,3.01
2023-02-23T05:54:52.409Z,3.10
2023-02-23T05:57:19.187Z,3.27
2023-02-23T05:59:46.810Z,3.33
2023-02-23T06:02:13.670Z,3.40
2023-02-23T06:04:42.245Z,3.56
2023-02-23T06:07:09.096Z,3.68
2023-02-23T06:09:36.312Z,3.80
2023-02-23T06:12:03.119Z,3.85
2023-02-23T06:14:29.981Z,4.07
2023-02-23T06:16:56.878Z,4.26
2023-02-23T06:19:24.195Z,4.31
2023-02-23T06:21:53.231Z,4.35
2023-02-23T06:24:20.343Z,4.39
2023-02-23T06:26:47.124Z,4.42
2023-02-23T06:29:14.698Z,4.55
2023-02-23T06:31:41.878Z,4.57
2023-02-23T06:34:09.847Z,4.71
2023-02-23T06:36:37.177Z,4.87
2023-02-23T06:39:05.557Z,5.01
2023-02-23T06:41:33.010Z,5.14
2023-02-23T06:43:59.946Z,5.28
2023-02-23T06:46:26.978Z,5.34
2023-02-23T06:48:57.884Z,5.37
2023-02-23T06:51:24.905Z,5.41
2023-02-23T06:53:55.100Z,5.66
2023-02-23T06:56:22.247Z,5.82
2023-02-23T06:58:49.120Z,5.93
2023-02-23T07:01:17.277Z,6.03
2023-02-23T07:03:44.272Z,6.21
2023-02-23T07:06:11.287Z,6.36
2023-02-23T07:08:38.813Z,6.45
2023-02-23T07:11:10.598Z,6.67
2023-02-23T07:13:37.681Z,6.85
2023-02-23T07:16:05.224Z,7.02
2023-02-23T07:18:32.223Z,7.22
2023-02-23T07:20:59.147Z,7.39
2023-02-23T07:23:25.925Z,7.64
2023-02-23T07:25:56.666Z,7.78
2023-02-23T07:28:25.854Z,8.15
2023-02-23T07:30:56.887Z,8.44
2023-02-23T07:33:24.928Z,8.75
2023-02-23T07:35:51.965Z,8.89
2023-02-23T07:38:19.107Z,8.99
2023-02-23T07:40:46.062Z,9.06
2023-02-23T07:43:13.274Z,9.26
2023-02-23T07:45:40.092Z,9.34
2023-02-23T07:48:07.403Z,9.42
2023-02-23T07:50:34.151Z,9.50
2023-02-23T07:53:01.472Z,9.70
2023-02-23T07:55:28.391Z,9.86
2023-02-23T07:57:55.519Z,9.98
2023-02-23T08:00:22.521Z,10.02
2023-02-23T08:02:49.468Z,10.20
2023-02-23T08:05:16.667Z,10.27
2023-02-23T08:07:43.441Z,10.43
2023-02-23T08:10:11.353Z,10.55
2023-02-23T08:12:38.347Z,10.57
2023-02-23T08:15:08.860Z,10.48
2023-02-23T08:17:40.211Z,10.44
2023-02-23T08:20:08.928Z,10.56
2023-02-23T08:22:48.562Z,10.63
2023-02-23T08:25:18.388Z,10.63
2023-02-23T08:27:45.672Z,10.51
2023-02-23T08:30:14.175Z,10.68
2023-02-23T08:32:41.243Z,10.82
2023-02-23T08:35:10.161Z,10.78
2023-02-23T08:37:37.386Z,10.71
2023-02-23T08:40:05.322Z,10.91
2023-02-23T08:42:32.278Z,10.79
2023-02-23T08:45:01.463Z,10.70
2023-02-23T08:47:28.594Z,10.83
2023-02-23T08:49:55.530Z,10.73
2023-02-23T08:52:22.386Z,10.99
2023-02-23T08:54:49.415Z,11.13
2023-02-23T08:57:16.213Z,11.25
2023-02-23T08:59:43.155Z,11.40
2023-02-23T09:02:14.278Z,11.69
2023-02-23T09:04:44.816Z,11.67
2023-02-23T09:07:17.411Z,11.86
2023-02-23T09:09:44.484Z,11.82
2023-02-23T09:12:11.316Z,11.73
2023-02-23T09:14:38.300Z,11.62
2023-02-23T09:17:05.175Z,12.02
2023-02-23T09:19:32.167Z,12.07
2023-02-23T09:21:58.990Z,12.16
2023-02-23T09:24:26.114Z,12.03
2023-02-23T09:26:53.897Z,12.05
2023-02-23T09:29:21.435Z,12.13
2023-02-23T09:31:48.404Z,12.44
2023-02-23T09:34:15.417Z,12.52
2023-02-23T09:36:45.455Z,12.44
2023-02-23T09:39:12.478Z,12.67
2023-02-23T09:41:56.351Z,12.83
2023-02-23T09:44:45.539Z,12.92
2023-02-23T09:47:33.557Z,12.93
2023-02-23T09:50:06.493Z,12.92
2023-02-23T09:52:42.622Z,12.83
2023-02-23T09:55:13.152Z,13.05
2023-02-23T09:57:44.754Z,13.38
2023-02-23T10:00:20.296Z,13.71
2023-02-23T10:03:12.064Z,13.79
2023-02-23T10:05:44.214Z,13.72
2023-02-23T10:08:28.930Z,14.03
2023-02-23T10:11:15.083Z,13.76
2023-02-23T10:14:05.313Z,13.99
2023-02-23T10:17:00.947Z,13.98
2023-02-23T10:19:55.164Z,13.97
2023-02-23T10:22:22.470Z,13.64
2023-02-23T10:25:00.605Z,13.68
2023-02-23T10:27:40.677Z,13.50
2023-02-23T10:30:24.413Z,13.32
2023-02-23T10:33:13.399Z,13.31
2023-02-23T10:35:40.500Z,13.38
2023-02-23T10:38:17.674Z,13.53
2023-02-23T10:41:06.171Z,13.78
2023-02-23T10:43:33.416Z,13.92
2023-02-23T10:46:00.358Z,14.04
2023-02-23T10:48:39.970Z,14.22
2023-02-23T10:51:14.509Z,14.43
2023-02-23T10:53:41.746Z,14.65
2023-02-23T10:56:15.006Z,14.64
2023-02-23T10:58:51.194Z,14.63
2023-02-23T11:01:32.932Z,14.57
2023-02-23T11:04:24.069Z,14.51
2023-02-23T11:07:06.027Z,14.52
2023-02-23T11:09:45.633Z,14.26
2023-02-23T11:12:22.064Z,13.77
2023-02-23T11:14:58.637Z,14.03
2023-02-23T11:17:37.632Z,14.00
2023-02-23T11:20:13.213Z,14.03
2023-02-23T11:22:42.534Z,14.02
2023-02-23T11:25:23.645Z,14.13
2023-02-23T11:27:57.155Z,13.92
2023-02-23T11:30:31.171Z,14.13
2023-02-23T11:33:09.613Z,14.33
2023-02-23T11:35:38.313Z,14.27
2023-02-23T11:38:26.992Z,14.27
2023-02-23T11:41:24.012Z,14.19
2023-02-23T11:43:57.095Z,14.25
2023-02-23T11:46:25.941Z,14.32
2023-02-23T11:49:02.832Z,14.32
2023-02-23T11:51:35.179Z,14.43
2023-02-23T11:54:05.787Z,14.38
2023-02-23T11:56:35.484Z,14.38
2023-02-23T11:59:15.896Z,14.44
2023-02-23T12:01:46.848Z,14.50
2023-02-23T12:04:37.475Z,14.51
2023-02-23T12:07:41.583Z,14.52
2023-02-23T12:10:19.891Z,14.71
2023-02-23T12:13:24.222Z,14.70
2023-02-23T12:16:03.342Z,14.53
2023-02-23T12:18:39.313Z,14.34
2023-02-23T12:21:25.374Z,14.24
2023-02-23T12:24:03.057Z,14.28
2023-02-23T12:26:33.872Z,14.24
2023-02-23T12:29:13.591Z,14.49
2023-02-23T12:31:54.455Z,14.43
2023-02-23T12:34:31.231Z,14.39
2023-02-23T12:37:10.584Z,14.22
2023-02-23T12:39:43.462Z,14.18
2023-02-23T12:42:29.087Z,14.33
2023-02-23T12:45:03.018Z,13.90
2023-02-23T12:47:49.782Z,14.11
2023-02-23T12:50:37.828Z,13.86
2023-02-23T12:53:42.450Z,13.61
2023-02-23T12:56:35.823Z,13.46
2023-02-23T12:59:13.514Z,13.76
2023-02-23T13:01:46.428Z,13.73
2023-02-23T13:05:04.966Z,13.45
2023-02-23T13:07:45.282Z,13.62
2023-02-23T13:10:39.937Z,13.63
2023-02-23T13:13:31.153Z,13.43
2023-02-23T13:16:22.798Z,13.35
2023-02-23T13:18:50.003Z,13.32
2023-02-23T13:21:41.920Z,13.29
2023-02-23T13:24:19.228Z,13.29
2023-02-23T13:27:03.589Z,13.36
2023-02-23T13:29:40.748Z,13.22
2023-02-23T13:32:17.953Z,13.17
2023-02-23T13:34:50.255Z,13.21
2023-02-23T13:37:20.953Z,12.99
2023-02-23T13:39:56.601Z,13.18
2023-02-23T13:42:48.836Z,13.28
2023-02-23T13:45:37.705Z,13.10
2023-02-23T13:48:17.042Z,13.03
2023-02-23T13:51:00.445Z,12.95
2023-02-23T13:53:39.715Z,12.65
2023-02-23T13:56:16.559Z,12.50
2023-02-23T13:58:51.642Z,12.72
2023-02-23T14:01:23.058Z,12.49
2023-02-23T14:03:57.333Z,12.53
2023-02-23T14:06:27.699Z,12.60
2023-02-23T14:09:08.297Z,12.45
2023-02-23T14:11:53.796Z,12.26
2023-02-23T14:14:36.778Z,12.19
2023-02-23T14:17:20.086Z,12.09
2023-02-23T14:19:56.644Z,12.00
2023-02-23T14:22:23.862Z,11.91
2023-02-23T14:25:27.900Z,11.99
2023-02-23T14:28:06.817Z,11.84
2023-02-23T14:31:03.306Z,11.61
2023-02-23T14:33:36.364Z,11.65
2023-02-23T14:36:26.589Z,11.59
2023-02-23T14:38:53.459Z,11.37
2023-02-23T14:41:26.795Z,11.41
2023-02-23T14:44:20.104Z,11.44
2023-02-23T14:47:16.848Z,11.49
2023-02-23T14:50:01.725Z,11.50
2023-02-23T14:52:33.449Z,11.38
2023-02-23T14:55:12.416Z,11.46
2023-02-23T14:57:42.310Z,11.29
2023-02-23T15:00:16.089Z,11.30
2023-02-23T15:03:02.103Z,11.07
2023-02-23T15:05:51.360Z,11.11
2023-02-23T15:08:23.064Z,11.01
2023-02-23T15:11:00.341Z,10.87
2023-02-23T15:16:06.720Z,10.67
2023-02-23T15:18:40.470Z,10.63
2023-02-23T15:21:14.205Z,10.51
2023-02-23T15:23:44.809Z,10.52
2023-02-23T15:26:39.528Z,10.31
2023-02-23T15:29:18.650Z,10.20
2023-02-23T15:31:52.393Z,10.18
2023-02-23T15:34:26.914Z,10.24
2023-02-23T15:37:14.737Z,10.07
2023-02-23T15:39:53.380Z,9.92
2023-02-23T15:42:33.483Z,9.83
2023-02-23T15:45:03.726Z,9.66
2023-02-23T15:47:36.719Z,9.57
2023-02-23T15:50:34.915Z,9.65
2023-02-23T15:53:13.900Z,9.40
2023-02-23T15:55:43.324Z,9.51
2023-02-23T15:58:32.775Z,9.42
2023-02-23T16:01:08.322Z,9.13
2023-02-23T16:03:37.674Z,9.21
2023-02-23T16:06:07.753Z,9.12
2023-02-23T16:08:36.907Z,9.07
2023-02-23T16:11:12.565Z,8.85
2023-02-23T16:13:46.750Z,9.07
2023-02-23T16:16:20.524Z,8.97
2023-02-23T16:18:53.465Z,8.49
2023-02-23T16:21:25.317Z,8.86
2023-02-23T16:23:55.970Z,8.86
2023-02-23T16:26:47.737Z,8.68
2023-02-23T16:29:20.081Z,8.79
2023-02-23T16:31:50.892Z,8.85
2023-02-23T16:34:31.620Z,8.83
2023-02-23T16:37:17.888Z,8.81
2023-02-23T16:39:45.610Z,8.73
2023-02-23T16:42:24.247Z,8.49
2023-02-23T16:44:51.289Z,8.62
2023-02-23T16:47:36.505Z,8.54
2023-02-23T16:50:19.968Z,8.49
2023-02-23T16:52:53.621Z,8.43
2023-02-23T16:55:26.048Z,8.38
2023-02-23T16:58:02.561Z,8.37
2023-02-23T17:00:32.486Z,8.22
2023-02-23T17:03:00.773Z,8.16
2023-02-23T17:05:29.347Z,8.25
2023-02-23T17:07:58.306Z,8.23
2023-02-23T17:10:33.567Z,8.25
2023-02-23T17:13:05.168Z,8.18
2023-02-23T17:15:39.615Z,8.16
2023-02-23T17:18:08.701Z,8.17
2023-02-23T17:20:35.524Z,8.03
2023-02-23T17:23:03.021Z,8.09
2023-02-23T17:25:30.180Z,8.09
2023-02-23T17:27:58.154Z,8.05
2023-02-23T17:30:25.835Z,7.97
2023-02-23T17:32:55.788Z,8.00
2023-02-23T17:35:24.389Z,7.97
2023-02-23T17:37:51.653Z,8.05
2023-02-23T17:40:32.448Z,7.98
2023-02-23T17:43:09.462Z,7.85
2023-02-23T17:45:42.773Z,7.99
2023-02-23T17:48:10.375Z,8.05
2023-02-23T17:50:46.648Z,8.01
2023-02-23T17:53:26.227Z,7.99
2023-02-23T17:55:57.640Z,7.96
2023-02-23T17:58:27.084Z,7.99
2023-02-23T18:00:58.884Z,7.97
2023-02-23T18:03:32.181Z,8.03
2023-02-23T18:06:00.982Z,7.94
2023-02-23T18:11:09.017Z,7.92
2023-02-23T18:13:37.125Z,7.79
2023-02-23T18:16:09.151Z,7.72
2023-02-23T18:18:38.791Z,7.78
2023-02-23T18:21:12.511Z,7.82
2023-02-23T18:23:39.836Z,7.67
2023-02-23T18:26:09.815Z,7.79
2023-02-23T18:28:38.613Z,7.67
2023-02-23T18:31:06.090Z,7.66
2023-02-23T18:33:35.937Z,7.56
2023-02-23T18:36:04.158Z,7.55
2023-02-23T18:38:31.080Z,7.64
2023-02-23T18:40:58.827Z,7.61
2023-02-23T18:43:25.598Z,7.61
2023-02-23T18:45:52.485Z,7.69
2023-02-23T18:48:20.573Z,7.59
2023-02-23T18:50:47.446Z,7.53
2023-02-23T18:53:14.505Z,7.75
2023-02-23T18:55:41.558Z,7.81
2023-02-23T18:58:08.589Z,7.75
2023-02-23T19:00:40.208Z,7.64
2023-02-23T19:03:07.452Z,7.66
2023-02-23T19:05:36.247Z,7.68
2023-02-23T19:08:08.676Z,7.72
2023-02-23T19:10:36.420Z,7.76
2023-02-23T19:13:03.241Z,7.79
2023-02-23T19:15:31.126Z,7.77
2023-02-23T19:17:58.011Z,7.66
2023-02-23T19:20:32.560Z,7.64
2023-02-23T19:22:59.590Z,7.63
2023-02-23T19:25:26.463Z,7.54
2023-02-23T19:27:53.638Z,7.64
2023-02-23T19:30:20.501Z,7.61
2023-02-23T19:32:47.916Z,7.54
2023-02-23T19:35:15.270Z,7.63
2023-02-23T19:37:47.702Z,7.72
2023-02-23T19:40:19.875Z,7.77
2023-02-23T19:42:49.667Z,7.69
2023-02-23T19:45:17.909Z,7.73
2023-02-23T19:47:46.688Z,7.75
2023-02-23T19:50:16.932Z,7.79
2023-02-23T19:52:45.624Z,7.84
2023-02-23T19:55:13.604Z,7.70
2023-02-23T19:57:40.654Z,7.81
2023-02-23T20:00:12.185Z,7.86
2023-02-23T20:02:44.477Z,8.03
2023-02-23T20:05:16.563Z,7.80
2023-02-23T20:07:43.671Z,7.93
2023-02-23T20:10:16.509Z,8.00
2023-02-23T20:12:44.596Z,7.96
2023-02-23T20:15:14.940Z,7.93
2023-02-23T20:17:42.436Z,7.96
2023-02-23T20:20:13.678Z,7.97
2023-02-23T20:22:45.062Z,7.91
2023-02-23T20:25:15.770Z,8.05
2023-02-23T20:27:44.055Z,8.08
2023-02-23T20:30:12.558Z,7.96
2023-02-23T20:32:39.889Z,8.02
2023-02-23T20:35:07.470Z,8.04
2023-02-23T20:37:34.455Z,7.95
2023-02-23T20:40:01.272Z,7.91
2023-02-23T20:42:28.672Z,7.89
2023-02-23T20:44:55.674Z,7.95
2023-02-23T20:47:24.739Z,7.97
2023-02-23T20:49:51.560Z,7.93
2023-02-23T20:52:18.471Z,7.81
2023-02-23T20:54:45.225Z,7.85
2023-02-23T20:57:12.849Z,7.86
2023-02-23T20:59:40.433Z,7.89
2023-02-23T21:02:09.124Z,7.82
2023-02-23T21:04:38.119Z,7.93
2023-02-23T21:07:05.610Z,7.71
2023-02-23T21:09:33.039Z,7.84
2023-02-23T21:12:00.088Z,7.93
2023-02-23T21:14:26.909Z,7.93
2023-02-23T21:16:53.944Z,7.85
2023-02-23T21:19:23.885Z,7.96
2023-02-23T21:21:57.974Z,7.80
2023-02-23T21:24:26.321Z,7.77
2023-02-23T21:26:53.069Z,7.83
2023-02-23T21:29:23.889Z,7.74
2023-02-23T21:31:51.134Z,7.80
2023-02-23T21:34:20.867Z,7.69
2023-02-23T21:36:48.347Z,7.80
2023-02-23T21:39:15.548Z,7.76
2023-02-23T21:41:42.373Z,7.64
2023-02-23T21:44:09.425Z,7.68
2023-02-23T21:46:36.582Z,7.61
2023-02-23T21:49:09.607Z,7.57
2023-02-23T21:51:37.014Z,7.63
2023-02-23T21:54:04.433Z,7.57
2023-02-23T21:56:32.821Z,7.48
2023-02-23T21:58:59.803Z,7.63
2023-02-23T22:01:29.778Z,7.57
2023-02-23T22:03:57.866Z,7.62
2023-02-23T22:06:28.096Z,7.58
2023-02-23T22:08:55.947Z,7.48
2023-02-23T22:11:26.960Z,7.47
2023-02-23T22:13:59.926Z,7.50
2023-02-23T22:16:32.188Z,7.44
2023-02-23T22:19:03.711Z,7.46
2023-02-23T22:21:33.602Z,7.44
2023-02-23T22:24:01.669Z,7.52
2023-02-23T22:26:30.349Z,7.50
2023-02-23T22:28:57.332Z,7.51
2023-02-23T22:31:24.813Z,7.59
2023-02-23T22:33:52.126Z,7.61
2023-02-23T22:36:19.184Z,7.53
2023-02-23T22:38:46.889Z,7.54
2023-02-23T22:41:13.928Z,7.51
2023-02-23T22:43:43.361Z,7.57
2023-02-23T22:46:10.994Z,7.53
2023-02-23T22:48:38.169Z,7.63
2023-02-23T22:51:05.434Z,7.40
2023-02-23T22:53:32.276Z,7.44
2023-02-23T22:55:59.669Z,7.47
2023-02-23T22:58:26.824Z,7.44
2023-02-23T23:01:04.986Z,7.36
2023-02-23T23:03:39.654Z,7.32
2023-02-23T23:06:10.170Z,7.23
2023-02-23T23:08:42.737Z,7.08
2023-02-23T23:11:13.721Z,7.29
2023-02-23T23:13:44.793Z,7.33
2023-02-23T23:16:16.731Z,7.26
2023-02-23T23:18:54.476Z,7.29
2023-02-23T23:21:24.593Z,7.13
2023-02-23T23:23:54.277Z,7.09
2023-02-23T23:26:23.368Z,7.09
2023-02-23T23:29:01.243Z,7.12
2023-02-23T23:31:29.888Z,7.00
2023-02-23T23:34:00.267Z,7.04
2023-02-23T23:36:29.447Z,7.01
2023-02-23T23:38:56.648Z,6.83
2023-02-23T23:41:25.386Z,6.69
2023-02-23T23:43:54.887Z,6.69
2023-02-23T23:46:30.643Z,6.48
2023-02-23T23:49:04.686Z,6.50
2023-02-23T23:51:38.824Z,6.49
2023-02-23T23:54:08.366Z,6.46
2023-02-23T23:56:39.475Z,6.38
2023-02-23T23:59:11.137Z,6.40
